createdAt,value
2023-01-04T00:04:19.745Z,102007.56
2023-01-04T00:09:26.742Z,101994.44
2023-01-04T00:14:34.639Z,101999.19
2023-01-04T00:19:41.134Z,102006.97
2023-01-04T00:24:47.895Z,102008.56
2023-01-04T00:29:55.670Z,102005.94
2023-01-04T00:35:02.199Z,102013.31
2023-01-04T00:40:11.644Z,102009.88
2023-01-04T00:45:20.442Z,102011.47
2023-01-04T00:50:26.928Z,102020.84
2023-01-04T00:55:33.733Z,102018.22
2023-01-04T01:00:42.737Z,102016.53
2023-01-04T01:05:49.141Z,102027.47
2023-01-04T01:10:56.996Z,102042.09
2023-01-04T01:16:11.166Z,102052.03
2023-01-04T01:21:20.754Z,102048.28
2023-01-04T01:26:28.346Z,102051.38
2023-01-04T01:31:36.420Z,102042.00
2023-01-04T01:36:43.116Z,102039.53
2023-01-04T01:41:50.315Z,102042.16
2023-01-04T01:46:58.944Z,102040.25
2023-01-04T01:52:12.282Z,102037.53
2023-01-04T01:57:24.301Z,102035.06
2023-01-04T02:02:32.622Z,102034.44
2023-01-04T02:07:40.415Z,102032.50
2023-01-04T02:12:48.148Z,102024.78
2023-01-04T02:18:05.821Z,102015.38
2023-01-04T02:23:53.471Z,102027.31
2023-01-04T02:29:54.004Z,102016.19
2023-01-04T02:35:13.859Z,102011.91
2023-01-04T02:40:30.036Z,102004.50
2023-01-04T02:45:44.415Z,102000.97
2023-01-04T02:50:58.524Z,102007.38
2023-01-04T02:56:18.367Z,102002.47
2023-01-04T03:01:57.498Z,101976.22
2023-01-04T03:07:16.881Z,101973.53
2023-01-04T03:12:35.761Z,101964.31
2023-01-04T03:17:49.761Z,101960.25
2023-01-04T03:23:21.731Z,101957.75
2023-01-04T03:28:50.746Z,101961.34
2023-01-04T03:34:13.980Z,101955.25
2023-01-04T03:39:51.078Z,101948.03
2023-01-04T03:45:31.860Z,101944.59
2023-01-04T03:50:43.187Z,101945.63
2023-01-04T03:55:52.775Z,101939.47
2023-01-04T04:01:04.099Z,101941.16
2023-01-04T04:06:29.166Z,101945.09
2023-01-04T04:11:37.043Z,101935.66
2023-01-04T04:16:43.902Z,101921.31
2023-01-04T04:21:50.421Z,101928.91
2023-01-04T04:26:58.526Z,101930.81
2023-01-04T04:32:05.266Z,101931.69
2023-01-04T04:37:11.918Z,101936.66
2023-01-04T04:42:19.979Z,101927.91
2023-01-04T04:47:26.319Z,101933.31
2023-01-04T04:52:32.828Z,101932.81
2023-01-04T04:57:40.834Z,101922.81
2023-01-04T05:02:47.947Z,101905.63
2023-01-04T05:07:54.857Z,101891.81
2023-01-04T05:13:02.850Z,101897.22
2023-01-04T05:18:11.432Z,101898.19
2023-01-04T05:23:21.883Z,101889.50
2023-01-04T05:28:30.467Z,101888.56
2023-01-04T05:33:37.660Z,101875.44
2023-01-04T05:38:44.210Z,101873.41
2023-01-04T05:43:52.419Z,101882.78
2023-01-04T05:48:58.962Z,101877.59
2023-01-04T05:54:05.643Z,101863.88
2023-01-04T05:59:14.035Z,101859.00
2023-01-04T06:04:22.015Z,101847.03
2023-01-04T06:09:28.978Z,101839.50
2023-01-04T06:14:37.703Z,101822.41
2023-01-04T06:19:44.764Z,101825.94
2023-01-04T06:24:51.955Z,101809.66
2023-01-04T06:30:00.438Z,101807.34
2023-01-04T06:35:08.450Z,101789.63
2023-01-04T06:40:15.967Z,101804.31
2023-01-04T06:45:25.091Z,101820.91
2023-01-04T06:50:33.006Z,101818.09
2023-01-04T06:55:41.977Z,101829.00
2023-01-04T07:00:54.726Z,101839.66
2023-01-04T07:06:05.299Z,101844.16
2023-01-04T07:11:13.234Z,101832.09
2023-01-04T07:16:22.326Z,101810.34
2023-01-04T07:21:30.416Z,101801.78
2023-01-04T07:26:37.888Z,101789.06
2023-01-04T07:31:48.853Z,101793.34
2023-01-04T07:36:56.067Z,101794.78
2023-01-04T07:42:03.112Z,101788.06
2023-01-04T07:47:11.233Z,101776.66
2023-01-04T07:52:19.682Z,101780.34
2023-01-04T07:57:26.666Z,101759.56
2023-01-04T08:02:35.505Z,101739.19
2023-01-04T08:07:42.799Z,101748.78
2023-01-04T08:12:49.645Z,101753.75
2023-01-04T08:17:58.699Z,101742.78
2023-01-04T08:23:06.313Z,101741.97
2023-01-04T08:28:13.587Z,101754.38
2023-01-04T08:33:21.920Z,101740.22
2023-01-04T08:38:58.686Z,101727.53
2023-01-04T08:43:55.480Z,101728.03
2023-01-04T08:49:03.674Z,101722.44
2023-01-04T08:54:12.060Z,101697.16
2023-01-04T08:59:19.428Z,101673.63
2023-01-04T09:04:27.869Z,101666.38
2023-01-04T09:09:35.519Z,101667.59
2023-01-04T09:14:42.172Z,101659.41
2023-01-04T09:19:50.311Z,101647.91
2023-01-04T09:24:57.313Z,101637.53
2023-01-04T09:30:04.437Z,101629.50
2023-01-04T09:35:13.395Z,101610.28
2023-01-04T09:40:29.197Z,101607.16
2023-01-04T09:45:35.779Z,101595.41
2023-01-04T09:50:54.874Z,101586.16
2023-01-04T09:56:18.756Z,101557.28
2023-01-04T10:01:30.239Z,101536.94
2023-01-04T10:06:40.381Z,101536.34
2023-01-04T10:12:15.865Z,101512.53
2023-01-04T10:18:34.119Z,101484.34
2023-01-04T10:23:13.616Z,101440.75
2023-01-04T10:28:38.240Z,101425.41
2023-01-04T10:33:50.350Z,101410.03
2023-01-04T10:39:04.275Z,101385.34
2023-01-04T10:44:18.003Z,101366.56
2023-01-04T10:49:35.626Z,101355.56
2023-01-04T10:54:49.504Z,101357.44
2023-01-04T11:00:03.281Z,101358.44
2023-01-04T11:05:21.274Z,101343.09
2023-01-04T11:10:36.754Z,101326.94
2023-01-04T11:15:45.688Z,101317.63
2023-01-04T11:20:52.593Z,101284.22
2023-01-04T11:26:06.100Z,101263.66
2023-01-04T11:31:24.687Z,101243.09
2023-01-04T11:36:40.396Z,101236.31
2023-01-04T11:42:02.927Z,101205.38
2023-01-04T11:47:18.733Z,101184.78
2023-01-04T11:52:34.322Z,101171.91
2023-01-04T11:57:42.188Z,101147.03
2023-01-04T12:03:01.383Z,101136.81
2023-01-04T12:08:09.248Z,101132.56
2023-01-04T12:13:18.154Z,101118.88
2023-01-04T12:18:30.949Z,101116.31
2023-01-04T12:23:37.180Z,101101.72
2023-01-04T12:28:47.784Z,101082.81
2023-01-04T12:33:56.543Z,101069.91
2023-01-04T12:39:29.543Z,101059.63
2023-01-04T12:45:25.289Z,101045.91
2023-01-04T12:50:33.479Z,101037.31
2023-01-04T12:56:01.395Z,101013.22
2023-01-04T13:01:28.397Z,100993.44
2023-01-04T13:06:48.157Z,100969.31
2023-01-04T13:12:22.480Z,100956.44
2023-01-04T13:17:31.564Z,100928.03
2023-01-04T13:22:37.882Z,100916.81
2023-01-04T13:27:58.547Z,100909.94
2023-01-04T13:33:27.141Z,100902.19
2023-01-04T13:38:37.415Z,100900.47
2023-01-04T13:44:04.840Z,100890.13
2023-01-04T13:49:17.624Z,100872.06
2023-01-04T13:54:28.944Z,100860.00
2023-01-04T13:59:39.649Z,100850.53
2023-01-04T14:04:49.569Z,100846.22
2023-01-04T14:10:02.060Z,100822.97
2023-01-04T14:15:21.189Z,100818.69
2023-01-04T14:20:38.267Z,100812.66
2023-01-04T14:25:48.864Z,100742.88
2023-01-04T14:30:58.176Z,100690.31
2023-01-04T14:36:14.060Z,100715.28
2023-01-04T14:41:24.363Z,100702.34
2023-01-04T14:46:33.380Z,100687.72
2023-01-04T14:51:46.577Z,100677.38
2023-01-04T14:56:53.714Z,100664.44
2023-01-04T15:02:00.947Z,100655.00
2023-01-04T15:07:29.594Z,100641.19
2023-01-04T15:12:36.169Z,100637.75
2023-01-04T15:17:42.717Z,100623.13
2023-01-04T15:22:50.756Z,100606.75
2023-01-04T15:27:57.148Z,100609.31
2023-01-04T15:33:03.603Z,100586.09
2023-01-04T15:38:16.143Z,100580.03
2023-01-04T15:43:25.099Z,100566.25
2023-01-04T15:48:33.859Z,100555.06
2023-01-04T15:53:42.245Z,100545.59
2023-01-04T15:58:49.331Z,100536.13
2023-01-04T16:03:56.063Z,100530.97
2023-01-04T16:09:04.112Z,100510.28
2023-01-04T16:14:12.383Z,100494.78
2023-01-04T16:19:19.721Z,100485.31
2023-01-04T16:29:54.456Z,100461.19
2023-01-04T16:35:01.365Z,100443.94
2023-01-04T16:40:13.900Z,100456.88
2023-01-04T16:45:21.087Z,100443.97
2023-01-04T16:50:28.718Z,100434.47
2023-01-04T16:55:37.183Z,100421.56
2023-01-04T17:00:44.208Z,100389.66
2023-01-04T17:05:51.195Z,100371.56
2023-01-04T17:11:27.591Z,100361.22
2023-01-04T17:16:30.984Z,100338.81
2023-01-04T17:21:41.065Z,100336.25
2023-01-04T17:26:49.419Z,100317.28
2023-01-04T17:31:56.353Z,100315.56
2023-01-04T17:37:03.096Z,100300.88
2023-01-04T17:42:12.477Z,100293.13
2023-01-04T17:47:19.639Z,100275.03
2023-01-04T17:52:31.033Z,100257.75
2023-01-04T17:57:40.349Z,100243.97
2023-01-04T18:02:47.686Z,100233.59
2023-01-04T18:07:55.537Z,100218.06
2023-01-04T18:13:03.978Z,100212.06
2023-01-04T18:18:11.111Z,100196.53
2023-01-04T18:23:25.287Z,100197.31
2023-01-04T18:28:36.625Z,100192.13
2023-01-04T18:33:45.041Z,100172.28
2023-01-04T18:38:56.025Z,100160.19
2023-01-04T18:44:31.376Z,100150.69
2023-01-04T18:49:36.866Z,100136.03
2023-01-04T18:54:45.538Z,100124.81
2023-01-04T18:59:55.140Z,100122.16
2023-01-04T19:05:06.753Z,100110.13
2023-01-04T19:10:15.789Z,100099.69
2023-01-04T19:15:26.506Z,100082.41
2023-01-04T19:20:36.370Z,100075.53
2023-01-04T19:25:47.993Z,100075.47
2023-01-04T19:30:57.237Z,100071.09
2023-01-04T19:36:08.425Z,100072.78
2023-01-04T19:41:29.343Z,100059.88
2023-01-04T19:46:45.682Z,100045.97
2023-01-04T19:51:58.416Z,100043.44
2023-01-04T19:57:07.673Z,100044.22
2023-01-04T20:02:16.918Z,100026.94
2023-01-04T20:07:24.802Z,100026.91
2023-01-04T20:12:32.530Z,100035.44
2023-01-04T20:17:45.228Z,100030.28
2023-01-04T20:22:53.706Z,100020.81
2023-01-04T20:28:02.810Z,100013.00
2023-01-04T20:33:12.752Z,100006.06
2023-01-04T20:38:25.068Z,99996.50
2023-01-04T20:43:37.701Z,99988.66
2023-01-04T20:48:46.878Z,99996.41
2023-01-04T20:53:55.152Z,99982.56
2023-01-04T20:59:03.234Z,99979.09
2023-01-04T21:04:16.239Z,99980.78
2023-01-04T21:09:24.671Z,99960.03
2023-01-04T21:14:36.543Z,99946.13
2023-01-04T21:19:46.250Z,99931.41
2023-01-04T21:24:53.765Z,99916.75
2023-01-04T21:30:01.614Z,99910.66
2023-01-04T21:35:11.506Z,99895.94
2023-01-04T21:40:17.881Z,99891.50
2023-01-04T21:45:26.393Z,99885.38
2023-01-04T21:50:38.777Z,99876.72
2023-01-04T21:55:45.251Z,99876.69
2023-01-04T22:00:52.088Z,99867.13
2023-01-04T22:06:05.421Z,99842.94
2023-01-04T22:11:12.433Z,99835.13
2023-01-04T22:16:19.991Z,99831.59
2023-01-04T22:21:28.272Z,99827.25
2023-01-04T22:26:34.703Z,99821.13
2023-01-04T22:31:41.016Z,99807.28
2023-01-04T22:36:48.884Z,99803.78
2023-01-04T22:41:55.200Z,99776.06
2023-01-04T22:47:01.787Z,99769.06
2023-01-04T22:52:09.670Z,99761.28
2023-01-04T22:57:16.119Z,99760.31
2023-01-04T23:02:22.732Z,99743.91
2023-01-04T23:07:30.816Z,99743.84
2023-01-04T23:12:37.184Z,99743.75
2023-01-04T23:17:44.028Z,99722.06
2023-01-04T23:22:51.834Z,99723.69
2023-01-04T23:27:58.239Z,99718.53
2023-01-04T23:33:04.630Z,99708.84
2023-01-04T23:38:12.551Z,99699.28
2023-01-04T23:43:18.787Z,99688.00
2023-01-04T23:48:25.343Z,99679.25
2023-01-04T23:53:33.433Z,99660.25
2023-01-04T23:58:39.850Z,99649.78
